sensor_id;sensor_type;location;lat;lon;timestamp;pressure;altitude;pressure_sealevel;temperature;humidity
80648;BME280;70012;0.000;0.000;2023-05-24T00:01:54;101371.75;;;8.77;67.47
80648;BME280;70012;0.000;0.000;2023-05-24T00:04:22;101377.03;;;8.72;67.91
80648;BME280;70012;0.000;0.000;2023-05-24T00:06:51;101379.13;;;8.70;67.78
80648;BME280;70012;0.000;0.000;2023-05-24T00:09:20;101384.59;;;8.70;68.03
80648;BME280;70012;0.000;0.000;2023-05-24T00:11:47;101389.63;;;8.73;67.63
80648;BME280;70012;0.000;0.000;2023-05-24T00:14:14;101393.81;;;8.69;67.61
80648;BME280;70012;0.000;0.000;2023-05-24T00:16:41;101394.88;;;8.68;67.66
80648;BME280;70012;0.000;0.000;2023-05-24T00:19:08;101389.22;;;8.62;68.01
80648;BME280;70012;0.000;0.000;2023-05-24T00:21:37;101394.69;;;8.62;68.57
80648;BME280;70012;0.000;0.000;2023-05-24T00:24:03;101402.69;;;8.57;68.37
80648;BME280;70012;0.000;0.000;2023-05-24T00:26:30;101403.53;;;8.51;67.67
80648;BME280;70012;0.000;0.000;2023-05-24T00:28:59;101399.97;;;8.51;68.18
80648;BME280;70012;0.000;0.000;2023-05-24T00:31:26;101397.88;;;8.46;68.69
80648;BME280;70012;0.000;0.000;2023-05-24T00:33:52;101399.34;;;8.48;68.00
80648;BME280;70012;0.000;0.000;2023-05-24T00:36:19;101406.91;;;8.46;67.79
80648;BME280;70012;0.000;0.000;2023-05-24T00:38:46;101405.41;;;8.51;68.57
80648;BME280;70012;0.000;0.000;2023-05-24T00:41:13;101404.59;;;8.50;68.07
80648;BME280;70012;0.000;0.000;2023-05-24T00:43:39;101403.09;;;8.54;68.70
80648;BME280;70012;0.000;0.000;2023-05-24T00:46:13;101402.91;;;8.49;68.02
80648;BME280;70012;0.000;0.000;2023-05-24T00:48:42;101397.66;;;8.47;67.85
80648;BME280;70012;0.000;0.000;2023-05-24T00:51:10;101391.78;;;8.44;68.46
80648;BME280;70012;0.000;0.000;2023-05-24T00:53:39;101404.78;;;8.42;69.18
80648;BME280;70012;0.000;0.000;2023-05-24T00:56:07;101400.19;;;8.36;69.15
80648;BME280;70012;0.000;0.000;2023-05-24T00:58:34;101392.44;;;8.32;69.06
80648;BME280;70012;0.000;0.000;2023-05-24T01:01:01;101396.41;;;8.37;69.18
80648;BME280;70012;0.000;0.000;2023-05-24T01:03:28;101398.94;;;8.31;69.04
80648;BME280;70012;0.000;0.000;2023-05-24T01:05:59;101400.41;;;8.34;69.04
80648;BME280;70012;0.000;0.000;2023-05-24T01:14:17;101391.81;;;8.17;68.32
80648;BME280;70012;0.000;0.000;2023-05-24T01:16:53;101396.00;;;8.20;69.21
80648;BME280;70012;0.000;0.000;2023-05-24T01:22:27;101405.47;;;8.17;70.35
80648;BME280;70012;0.000;0.000;2023-05-24T01:25:38;101411.75;;;8.11;69.38
80648;BME280;70012;0.000;0.000;2023-05-24T01:28:07;101402.31;;;8.00;69.36
80648;BME280;70012;0.000;0.000;2023-05-24T01:30:35;101392.69;;;7.97;69.62
80648;BME280;70012;0.000;0.000;2023-05-24T01:33:03;101405.66;;;7.95;69.88
80648;BME280;70012;0.000;0.000;2023-05-24T01:35:30;101393.94;;;7.88;70.24
80648;BME280;70012;0.000;0.000;2023-05-24T01:37:57;101390.59;;;7.86;69.76
80648;BME280;70012;0.000;0.000;2023-05-24T01:40:24;101393.31;;;7.86;69.72
80648;BME280;70012;0.000;0.000;2023-05-24T01:45:45;101388.88;;;7.78;70.36
80648;BME280;70012;0.000;0.000;2023-05-24T01:51:17;101384.28;;;7.65;69.84
80648;BME280;70012;0.000;0.000;2023-05-24T01:53:46;101390.16;;;7.62;70.14
80648;BME280;70012;0.000;0.000;2023-05-24T01:56:14;101389.72;;;7.59;70.26
80648;BME280;70012;0.000;0.000;2023-05-24T01:58:43;101388.44;;;7.48;70.31
80648;BME280;70012;0.000;0.000;2023-05-24T02:01:11;101372.50;;;7.31;70.58
80648;BME280;70012;0.000;0.000;2023-05-24T02:03:39;101378.34;;;7.28;70.81
80648;BME280;70012;0.000;0.000;2023-05-24T02:06:08;101381.06;;;7.28;70.91
80648;BME280;70012;0.000;0.000;2023-05-24T02:08:36;101372.47;;;7.18;71.01
80648;BME280;70012;0.000;0.000;2023-05-24T02:11:03;101382.91;;;7.08;71.41
80648;BME280;70012;0.000;0.000;2023-05-24T02:13:29;101371.78;;;7.02;71.40
80648;BME280;70012;0.000;0.000;2023-05-24T02:15:56;101366.13;;;6.97;71.75
80648;BME280;70012;0.000;0.000;2023-05-24T02:18:22;101375.50;;;6.88;72.03
80648;BME280;70012;0.000;0.000;2023-05-24T02:20:49;101365.22;;;6.77;72.77
80648;BME280;70012;0.000;0.000;2023-05-24T02:23:16;101371.91;;;6.81;72.92
80648;BME280;70012;0.000;0.000;2023-05-24T02:25:43;101375.88;;;6.71;73.18
80648;BME280;70012;0.000;0.000;2023-05-24T02:28:10;101371.84;;;6.67;73.07
80648;BME280;70012;0.000;0.000;2023-05-24T02:30:37;101362.22;;;6.58;73.62
80648;BME280;70012;0.000;0.000;2023-05-24T02:33:05;101367.59;;;6.51;73.89
80648;BME280;70012;0.000;0.000;2023-05-24T02:35:35;101364.84;;;6.45;73.81
80648;BME280;70012;0.000;0.000;2023-05-24T02:38:01;101367.16;;;6.48;74.21
80648;BME280;70012;0.000;0.000;2023-05-24T02:40:32;101365.25;;;6.41;74.53
80648;BME280;70012;0.000;0.000;2023-05-24T02:42:58;101371.88;;;6.32;74.62
80648;BME280;70012;0.000;0.000;2023-05-24T02:45:25;101368.75;;;6.29;74.73
80648;BME280;70012;0.000;0.000;2023-05-24T02:47:52;101367.66;;;6.23;74.43
80648;BME280;70012;0.000;0.000;2023-05-24T02:50:18;101369.06;;;6.19;74.56
80648;BME280;70012;0.000;0.000;2023-05-24T02:52:45;101379.56;;;6.22;74.49
80648;BME280;70012;0.000;0.000;2023-05-24T02:55:12;101377.41;;;6.11;74.96
80648;BME280;70012;0.000;0.000;2023-05-24T02:57:38;101374.03;;;6.08;74.85
80648;BME280;70012;0.000;0.000;2023-05-24T03:00:07;101369.78;;;5.99;75.46
80648;BME280;70012;0.000;0.000;2023-05-24T03:02:35;101372.78;;;6.04;75.43
80648;BME280;70012;0.000;0.000;2023-05-24T03:05:04;101372.66;;;5.98;75.63
80648;BME280;70012;0.000;0.000;2023-05-24T03:07:31;101368.88;;;5.92;75.75
80648;BME280;70012;0.000;0.000;2023-05-24T03:09:58;101372.22;;;5.94;75.69
80648;BME280;70012;0.000;0.000;2023-05-24T03:12:24;101368.63;;;5.87;76.00
80648;BME280;70012;0.000;0.000;2023-05-24T03:14:51;101363.03;;;5.95;75.87
80648;BME280;70012;0.000;0.000;2023-05-24T03:17:18;101367.19;;;5.91;75.92
80648;BME280;70012;0.000;0.000;2023-05-24T03:19:44;101367.19;;;5.91;75.91
80648;BME280;70012;0.000;0.000;2023-05-24T03:22:11;101345.19;;;5.86;75.49
80648;BME280;70012;0.000;0.000;2023-05-24T03:24:38;101348.34;;;5.89;75.94
80648;BME280;70012;0.000;0.000;2023-05-24T03:27:05;101352.56;;;5.92;75.80
80648;BME280;70012;0.000;0.000;2023-05-24T03:29:32;101337.53;;;5.96;76.27
80648;BME280;70012;0.000;0.000;2023-05-24T03:31:59;101345.97;;;6.01;75.94
80648;BME280;70012;0.000;0.000;2023-05-24T03:34:25;101346.47;;;6.12;76.76
80648;BME280;70012;0.000;0.000;2023-05-24T03:36:52;101342.06;;;6.11;76.02
80648;BME280;70012;0.000;0.000;2023-05-24T03:39:19;101356.69;;;6.09;75.93
80648;BME280;70012;0.000;0.000;2023-05-24T03:41:45;101351.63;;;6.06;75.77
80648;BME280;70012;0.000;0.000;2023-05-24T03:44:12;101361.88;;;6.04;75.95
80648;BME280;70012;0.000;0.000;2023-05-24T03:46:39;101356.91;;;6.08;75.88
80648;BME280;70012;0.000;0.000;2023-05-24T03:49:07;101361.47;;;6.07;76.14
80648;BME280;70012;0.000;0.000;2023-05-24T03:51:34;101364.63;;;6.11;76.08
80648;BME280;70012;0.000;0.000;2023-05-24T03:54:01;101364.44;;;6.13;75.88
80648;BME280;70012;0.000;0.000;2023-05-24T03:56:28;101381.00;;;6.18;76.14
80648;BME280;70012;0.000;0.000;2023-05-24T03:58:55;101375.75;;;6.16;75.91
80648;BME280;70012;0.000;0.000;2023-05-24T04:01:26;101359.78;;;6.06;76.18
80648;BME280;70012;0.000;0.000;2023-05-24T04:04:00;101368.03;;;6.20;76.08
80648;BME280;70012;0.000;0.000;2023-05-24T04:06:28;101362.66;;;6.27;76.00
80648;BME280;70012;0.000;0.000;2023-05-24T04:08:56;101369.16;;;6.32;75.84
80648;BME280;70012;0.000;0.000;2023-05-24T04:11:24;101365.84;;;6.37;75.57
80648;BME280;70012;0.000;0.000;2023-05-24T04:13:54;101370.03;;;6.39;75.38
80648;BME280;70012;0.000;0.000;2023-05-24T04:16:22;101372.38;;;6.43;75.66
80648;BME280;70012;0.000;0.000;2023-05-24T04:18:56;101377.00;;;6.49;75.66
80648;BME280;70012;0.000;0.000;2023-05-24T04:21:23;101378.03;;;6.48;75.93
80648;BME280;70012;0.000;0.000;2023-05-24T04:23:50;101387.13;;;6.62;76.00
80648;BME280;70012;0.000;0.000;2023-05-24T04:26:16;101384.44;;;6.68;76.14
80648;BME280;70012;0.000;0.000;2023-05-24T04:28:43;101382.59;;;6.76;75.60
80648;BME280;70012;0.000;0.000;2023-05-24T04:31:14;101379.03;;;6.82;75.73
80648;BME280;70012;0.000;0.000;2023-05-24T04:33:42;101383.44;;;6.83;75.54
80648;BME280;70012;0.000;0.000;2023-05-24T04:36:08;101392.06;;;6.93;75.25
80648;BME280;70012;0.000;0.000;2023-05-24T04:38:37;101400.06;;;7.01;76.00
80648;BME280;70012;0.000;0.000;2023-05-24T04:41:04;101403.00;;;7.07;75.91
80648;BME280;70012;0.000;0.000;2023-05-24T04:43:32;101403.88;;;7.14;75.72
80648;BME280;70012;0.000;0.000;2023-05-24T04:46:01;101395.94;;;7.19;75.33
80648;BME280;70012;0.000;0.000;2023-05-24T04:48:28;101407.06;;;7.24;75.35
80648;BME280;70012;0.000;0.000;2023-05-24T04:50:56;101397.63;;;7.27;75.24
80648;BME280;70012;0.000;0.000;2023-05-24T04:53:26;101416.94;;;7.39;75.63
80648;BME280;70012;0.000;0.000;2023-05-24T04:55:55;101409.00;;;7.44;75.60
80648;BME280;70012;0.000;0.000;2023-05-24T04:58:22;101404.78;;;7.48;75.04
80648;BME280;70012;0.000;0.000;2023-05-24T05:00:48;101413.81;;;7.55;74.30
80648;BME280;70012;0.000;0.000;2023-05-24T05:03:15;101415.09;;;7.59;74.08
80648;BME280;70012;0.000;0.000;2023-05-24T05:05:42;101410.03;;;7.63;75.12
80648;BME280;70012;0.000;0.000;2023-05-24T05:08:09;101426.63;;;7.75;75.43
80648;BME280;70012;0.000;0.000;2023-05-24T05:10:36;101416.38;;;7.77;75.67
80648;BME280;70012;0.000;0.000;2023-05-24T05:13:03;101429.56;;;7.80;75.17
80648;BME280;70012;0.000;0.000;2023-05-24T05:15:30;101435.47;;;7.90;75.33
80648;BME280;70012;0.000;0.000;2023-05-24T05:17:56;101430.22;;;7.95;75.32
80648;BME280;70012;0.000;0.000;2023-05-24T05:20:23;101425.41;;;7.97;74.88
80648;BME280;70012;0.000;0.000;2023-05-24T05:22:50;101433.78;;;8.02;75.32
80648;BME280;70012;0.000;0.000;2023-05-24T05:25:18;101432.31;;;8.07;75.27
80648;BME280;70012;0.000;0.000;2023-05-24T05:27:45;101436.50;;;8.16;74.77
80648;BME280;70012;0.000;0.000;2023-05-24T05:30:12;101443.84;;;8.22;74.57
80648;BME280;70012;0.000;0.000;2023-05-24T05:32:39;101443.00;;;8.35;74.44
80648;BME280;70012;0.000;0.000;2023-05-24T05:35:06;101436.28;;;8.38;74.60
80648;BME280;70012;0.000;0.000;2023-05-24T05:37:41;101437.13;;;8.52;73.82
80648;BME280;70012;0.000;0.000;2023-05-24T05:40:08;101420.75;;;8.58;73.35
80648;BME280;70012;0.000;0.000;2023-05-24T05:42:37;101428.25;;;8.70;72.99
80648;BME280;70012;0.000;0.000;2023-05-24T05:45:04;101432.00;;;8.82;73.00
80648;BME280;70012;0.000;0.000;2023-05-24T05:47:31;101440.78;;;8.97;72.15
80648;BME280;70012;0.000;0.000;2023-05-24T05:49:58;101449.56;;;9.06;73.08
80648;BME280;70012;0.000;0.000;2023-05-24T05:52:25;101456.44;;;9.22;72.28
80648;BME280;70012;0.000;0.000;2023-05-24T05:54:52;101441.47;;;9.32;72.18
80648;BME280;70012;0.000;0.000;2023-05-24T05:57:19;101435.53;;;9.41;71.19
80648;BME280;70012;0.000;0.000;2023-05-24T05:59:50;101445.53;;;9.54;70.46
80648;BME280;70012;0.000;0.000;2023-05-24T06:02:17;101449.69;;;9.64;71.05
80648;BME280;70012;0.000;0.000;2023-05-24T06:04:50;101446.59;;;9.85;70.37
80648;BME280;70012;0.000;0.000;2023-05-24T06:07:17;101426.41;;;9.86;70.64
80648;BME280;70012;0.000;0.000;2023-05-24T06:09:51;101440.13;;;10.05;69.73
80648;BME280;70012;0.000;0.000;2023-05-24T06:12:19;101436.50;;;10.11;69.06
80648;BME280;70012;0.000;0.000;2023-05-24T06:14:45;101442.91;;;10.23;69.45
80648;BME280;70012;0.000;0.000;2023-05-24T06:17:15;101449.97;;;10.38;69.15
80648;BME280;70012;0.000;0.000;2023-05-24T06:19:42;101447.88;;;10.40;67.23
80648;BME280;70012;0.000;0.000;2023-05-24T06:22:09;101462.50;;;10.52;67.92
80648;BME280;70012;0.000;0.000;2023-05-24T06:24:36;101461.19;;;10.55;68.25
80648;BME280;70012;0.000;0.000;2023-05-24T06:27:03;101461.63;;;10.52;68.46
80648;BME280;70012;0.000;0.000;2023-05-24T06:29:30;101454.44;;;10.57;68.59
80648;BME280;70012;0.000;0.000;2023-05-24T06:31:57;101440.59;;;10.52;66.98
80648;BME280;70012;0.000;0.000;2023-05-24T06:34:24;101438.28;;;10.49;66.79
80648;BME280;70012;0.000;0.000;2023-05-24T06:36:51;101420.78;;;10.50;67.69
80648;BME280;70012;0.000;0.000;2023-05-24T06:39:18;101419.88;;;10.56;66.34
80648;BME280;70012;0.000;0.000;2023-05-24T06:41:45;101417.28;;;10.62;66.23
80648;BME280;70012;0.000;0.000;2023-05-24T06:44:12;101421.47;;;10.64;65.39
80648;BME280;70012;0.000;0.000;2023-05-24T06:46:39;101418.97;;;10.63;65.43
80648;BME280;70012;0.000;0.000;2023-05-24T06:49:06;101412.59;;;10.69;65.06
80648;BME280;70012;0.000;0.000;2023-05-24T06:51:33;101415.31;;;10.87;65.42
80648;BME280;70012;0.000;0.000;2023-05-24T06:53:59;101414.31;;;11.00;66.11
80648;BME280;70012;0.000;0.000;2023-05-24T06:56:26;101420.56;;;11.08;64.47
80648;BME280;70012;0.000;0.000;2023-05-24T06:58:55;101430.03;;;11.24;64.97
80648;BME280;70012;0.000;0.000;2023-05-24T07:01:21;101443.44;;;11.32;64.65
80648;BME280;70012;0.000;0.000;2023-05-24T07:03:48;101433.41;;;11.26;64.29
80648;BME280;70012;0.000;0.000;2023-05-24T07:06:15;101452.53;;;11.44;63.54
80648;BME280;70012;0.000;0.000;2023-05-24T07:08:42;101450.78;;;11.50;63.06
80648;BME280;70012;0.000;0.000;2023-05-24T07:11:09;101456.66;;;11.53;61.76
80648;BME280;70012;0.000;0.000;2023-05-24T07:13:37;101464.81;;;11.42;62.21
80648;BME280;70012;0.000;0.000;2023-05-24T07:16:05;101457.47;;;11.24;62.25
80648;BME280;70012;0.000;0.000;2023-05-24T07:18:31;101455.78;;;11.23;62.64
80648;BME280;70012;0.000;0.000;2023-05-24T07:21:00;101453.97;;;11.16;62.29
80648;BME280;70012;0.000;0.000;2023-05-24T07:23:29;101450.03;;;11.12;62.64
80648;BME280;70012;0.000;0.000;2023-05-24T07:25:56;101462.19;;;11.16;62.89
80648;BME280;70012;0.000;0.000;2023-05-24T07:28:23;101458.09;;;11.07;63.29
80648;BME280;70012;0.000;0.000;2023-05-24T07:30:49;101459.31;;;11.11;62.78
80648;BME280;70012;0.000;0.000;2023-05-24T07:33:17;101462.97;;;11.05;61.22
80648;BME280;70012;0.000;0.000;2023-05-24T07:35:44;101467.38;;;11.06;60.77
80648;BME280;70012;0.000;0.000;2023-05-24T07:38:20;101456.41;;;11.06;60.41
80648;BME280;70012;0.000;0.000;2023-05-24T07:40:47;101452.63;;;11.07;60.41
80648;BME280;70012;0.000;0.000;2023-05-24T07:43:14;101463.34;;;11.09;60.39
80648;BME280;70012;0.000;0.000;2023-05-24T07:45:41;101476.13;;;11.15;60.81
80648;BME280;70012;0.000;0.000;2023-05-24T07:48:09;101461.56;;;11.14;60.37
80648;BME280;70012;0.000;0.000;2023-05-24T07:50:36;101466.91;;;11.09;59.03
80648;BME280;70012;0.000;0.000;2023-05-24T07:53:04;101480.53;;;11.16;58.87
80648;BME280;70012;0.000;0.000;2023-05-24T07:55:33;101465.41;;;11.13;59.71
80648;BME280;70012;0.000;0.000;2023-05-24T07:58:00;101463.31;;;11.27;59.62
80648;BME280;70012;0.000;0.000;2023-05-24T08:00:26;101465.06;;;11.40;60.27
80648;BME280;70012;0.000;0.000;2023-05-24T08:02:53;101457.84;;;11.58;60.45
80648;BME280;70012;0.000;0.000;2023-05-24T08:05:20;101461.59;;;11.75;60.08
80648;BME280;70012;0.000;0.000;2023-05-24T08:07:48;101453.16;;;11.89;56.16
80648;BME280;70012;0.000;0.000;2023-05-24T08:10:15;101444.41;;;12.10;55.40
80648;BME280;70012;0.000;0.000;2023-05-24T08:12:44;101445.84;;;12.25;54.87
80648;BME280;70012;0.000;0.000;2023-05-24T08:15:10;101454.56;;;12.57;55.59
80648;BME280;70012;0.000;0.000;2023-05-24T08:17:38;101452.88;;;12.80;54.71
80648;BME280;70012;0.000;0.000;2023-05-24T08:20:05;101461.19;;;12.97;54.60
80648;BME280;70012;0.000;0.000;2023-05-24T08:22:34;101450.31;;;13.02;52.07
80648;BME280;70012;0.000;0.000;2023-05-24T08:25:02;101449.72;;;13.00;53.95
80648;BME280;70012;0.000;0.000;2023-05-24T08:27:29;101456.78;;;12.96;52.61
80648;BME280;70012;0.000;0.000;2023-05-24T08:29:56;101463.47;;;13.00;55.06
80648;BME280;70012;0.000;0.000;2023-05-24T08:32:23;101455.25;;;12.88;53.39
80648;BME280;70012;0.000;0.000;2023-05-24T08:34:50;101462.78;;;12.69;55.01
80648;BME280;70012;0.000;0.000;2023-05-24T08:37:25;101463.53;;;12.53;55.45
80648;BME280;70012;0.000;0.000;2023-05-24T08:39:53;101459.47;;;12.43;56.36
80648;BME280;70012;0.000;0.000;2023-05-24T08:42:20;101463.63;;;12.46;57.88
80648;BME280;70012;0.000;0.000;2023-05-24T08:44:52;101471.16;;;12.27;55.97
80648;BME280;70012;0.000;0.000;2023-05-24T08:47:24;101476.66;;;12.27;57.60
80648;BME280;70012;0.000;0.000;2023-05-24T08:49:52;101470.44;;;12.31;57.13
80648;BME280;70012;0.000;0.000;2023-05-24T08:52:20;101476.16;;;12.30;57.02
80648;BME280;70012;0.000;0.000;2023-05-24T08:54:48;101476.06;;;12.25;57.43
80648;BME280;70012;0.000;0.000;2023-05-24T08:57:16;101476.50;;;12.22;56.42
80648;BME280;70012;0.000;0.000;2023-05-24T08:59:43;101480.09;;;12.22;56.82
80648;BME280;70012;0.000;0.000;2023-05-24T09:02:12;101471.28;;;12.32;56.85
80648;BME280;70012;0.000;0.000;2023-05-24T09:04:40;101471.41;;;12.37;56.93
80648;BME280;70012;0.000;0.000;2023-05-24T09:07:11;101469.25;;;12.39;57.12
80648;BME280;70012;0.000;0.000;2023-05-24T09:09:46;101461.22;;;12.38;56.39
80648;BME280;70012;0.000;0.000;2023-05-24T09:12:14;101458.03;;;12.41;55.97
80648;BME280;70012;0.000;0.000;2023-05-24T09:15:05;101448.00;;;12.46;56.24
80648;BME280;70012;0.000;0.000;2023-05-24T09:17:36;101443.34;;;12.47;56.08
80648;BME280;70012;0.000;0.000;2023-05-24T09:20:07;101448.13;;;12.52;56.04
80648;BME280;70012;0.000;0.000;2023-05-24T09:22:35;101445.47;;;12.57;55.52
80648;BME280;70012;0.000;0.000;2023-05-24T09:25:07;101455.63;;;12.68;55.91
80648;BME280;70012;0.000;0.000;2023-05-24T09:27:35;101452.50;;;12.76;56.77
80648;BME280;70012;0.000;0.000;2023-05-24T09:30:10;101449.50;;;12.78;56.27
80648;BME280;70012;0.000;0.000;2023-05-24T09:32:38;101452.84;;;12.92;54.35
80648;BME280;70012;0.000;0.000;2023-05-24T09:35:08;101447.34;;;12.92;54.03
80648;BME280;70012;0.000;0.000;2023-05-24T09:37:36;101450.09;;;12.92;52.80
80648;BME280;70012;0.000;0.000;2023-05-24T09:40:05;101442.31;;;13.01;54.07
80648;BME280;70012;0.000;0.000;2023-05-24T09:42:32;101445.63;;;13.15;53.86
80648;BME280;70012;0.000;0.000;2023-05-24T09:45:03;101447.88;;;13.18;53.99
80648;BME280;70012;0.000;0.000;2023-05-24T09:47:33;101457.44;;;13.27;54.17
80648;BME280;70012;0.000;0.000;2023-05-24T09:50:01;101449.63;;;13.36;53.09
80648;BME280;70012;0.000;0.000;2023-05-24T09:52:29;101440.94;;;13.27;52.66
80648;BME280;70012;0.000;0.000;2023-05-24T09:54:59;101446.78;;;13.31;51.88
80648;BME280;70012;0.000;0.000;2023-05-24T09:57:25;101454.06;;;13.25;51.86
80648;BME280;70012;0.000;0.000;2023-05-24T09:59:53;101443.25;;;13.35;53.29
80648;BME280;70012;0.000;0.000;2023-05-24T10:02:20;101442.31;;;13.41;52.67
80648;BME280;70012;0.000;0.000;2023-05-24T10:04:58;101434.88;;;13.54;51.96
80648;BME280;70012;0.000;0.000;2023-05-24T10:07:25;101442.81;;;13.38;51.22
80648;BME280;70012;0.000;0.000;2023-05-24T10:09:52;101437.00;;;13.52;52.46
80648;BME280;70012;0.000;0.000;2023-05-24T10:12:20;101446.72;;;13.71;50.65
80648;BME280;70012;0.000;0.000;2023-05-24T10:14:49;101428.47;;;13.82;51.59
80648;BME280;70012;0.000;0.000;2023-05-24T10:17:18;101432.06;;;14.00;51.19
80648;BME280;70012;0.000;0.000;2023-05-24T10:19:44;101428.41;;;14.11;51.93
80648;BME280;70012;0.000;0.000;2023-05-24T10:22:13;101424.72;;;14.05;47.46
80648;BME280;70012;0.000;0.000;2023-05-24T10:24:46;101424.84;;;14.50;47.77
80648;BME280;70012;0.000;0.000;2023-05-24T10:27:16;101423.59;;;14.97;49.72
80648;BME280;70012;0.000;0.000;2023-05-24T10:29:58;101415.78;;;15.16;47.63
80648;BME280;70012;0.000;0.000;2023-05-24T10:32:27;101424.25;;;15.31;46.78
80648;BME280;70012;0.000;0.000;2023-05-24T10:34:58;101426.56;;;15.40;46.51
80648;BME280;70012;0.000;0.000;2023-05-24T10:37:26;101434.56;;;15.41;47.52
80648;BME280;70012;0.000;0.000;2023-05-24T10:39:52;101432.56;;;15.36;46.96
80648;BME280;70012;0.000;0.000;2023-05-24T10:42:19;101437.47;;;15.29;46.88
80648;BME280;70012;0.000;0.000;2023-05-24T10:44:46;101431.38;;;15.27;47.20
80648;BME280;70012;0.000;0.000;2023-05-24T10:47:14;101430.13;;;15.13;47.23
80648;BME280;70012;0.000;0.000;2023-05-24T10:49:49;101428.25;;;15.18;47.29
80648;BME280;70012;0.000;0.000;2023-05-24T10:52:17;101426.72;;;15.05;47.49
80648;BME280;70012;0.000;0.000;2023-05-24T10:57:31;101418.75;;;15.09;46.90
80648;BME280;70012;0.000;0.000;2023-05-24T11:03:04;101426.41;;;15.29;46.90
80648;BME280;70012;0.000;0.000;2023-05-24T11:08:43;101415.81;;;15.71;47.67
80648;BME280;70012;0.000;0.000;2023-05-24T11:11:12;101419.66;;;15.97;47.76
80648;BME280;70012;0.000;0.000;2023-05-24T11:13:55;101413.09;;;16.03;45.35
80648;BME280;70012;0.000;0.000;2023-05-24T11:16:36;101413.81;;;15.88;45.25
80648;BME280;70012;0.000;0.000;2023-05-24T11:19:14;101412.53;;;15.74;46.78
80648;BME280;70012;0.000;0.000;2023-05-24T11:21:43;101411.94;;;15.72;46.60
80648;BME280;70012;0.000;0.000;2023-05-24T11:24:11;101397.66;;;15.47;47.27
80648;BME280;70012;0.000;0.000;2023-05-24T11:26:38;101412.22;;;15.43;47.73
80648;BME280;70012;0.000;0.000;2023-05-24T11:29:06;101413.66;;;15.45;47.04
80648;BME280;70012;0.000;0.000;2023-05-24T11:31:33;101417.81;;;15.48;47.90
80648;BME280;70012;0.000;0.000;2023-05-24T11:34:11;101396.38;;;15.55;48.02
80648;BME280;70012;0.000;0.000;2023-05-24T11:36:38;101404.34;;;15.51;47.98
80648;BME280;70012;0.000;0.000;2023-05-24T11:39:07;101400.56;;;15.63;46.87
80648;BME280;70012;0.000;0.000;2023-05-24T11:41:37;101398.13;;;15.99;47.22
80648;BME280;70012;0.000;0.000;2023-05-24T11:44:10;101388.66;;;16.22;45.99
80648;BME280;70012;0.000;0.000;2023-05-24T11:46:38;101394.91;;;16.55;47.52
80648;BME280;70012;0.000;0.000;2023-05-24T11:49:06;101391.00;;;16.51;46.32
80648;BME280;70012;0.000;0.000;2023-05-24T11:51:34;101391.09;;;16.67;45.71
80648;BME280;70012;0.000;0.000;2023-05-24T11:54:01;101386.53;;;16.93;43.90
80648;BME280;70012;0.000;0.000;2023-05-24T11:56:29;101389.63;;;17.02;44.75
80648;BME280;70012;0.000;0.000;2023-05-24T12:01:37;101381.81;;;16.35;45.72
80648;BME280;70012;0.000;0.000;2023-05-24T12:04:07;101378.63;;;16.16;46.58
80648;BME280;70012;0.000;0.000;2023-05-24T12:06:42;101376.91;;;16.05;46.33
80648;BME280;70012;0.000;0.000;2023-05-24T12:09:14;101371.94;;;15.74;47.16
80648;BME280;70012;0.000;0.000;2023-05-24T12:11:46;101381.84;;;15.70;48.67
80648;BME280;70012;0.000;0.000;2023-05-24T12:14:13;101375.63;;;15.52;48.19
80648;BME280;70012;0.000;0.000;2023-05-24T12:16:45;101372.16;;;15.35;46.69
80648;BME280;70012;0.000;0.000;2023-05-24T12:19:20;101380.53;;;15.18;47.55
80648;BME280;70012;0.000;0.000;2023-05-24T12:21:56;101379.84;;;15.05;49.12
80648;BME280;70012;0.000;0.000;2023-05-24T12:24:25;101383.16;;;14.85;48.92
80648;BME280;70012;0.000;0.000;2023-05-24T12:27:03;101385.91;;;14.63;49.30
80648;BME280;70012;0.000;0.000;2023-05-24T12:29:37;101378.25;;;14.48;49.79
80648;BME280;70012;0.000;0.000;2023-05-24T12:32:08;101381.97;;;14.37;48.17
80648;BME280;70012;0.000;0.000;2023-05-24T12:34:40;101388.16;;;14.27;48.94
80648;BME280;70012;0.000;0.000;2023-05-24T12:37:08;101390.00;;;14.21;50.40
80648;BME280;70012;0.000;0.000;2023-05-24T12:39:35;101378.00;;;14.11;49.62
80648;BME280;70012;0.000;0.000;2023-05-24T12:42:04;101389.75;;;14.06;50.82
80648;BME280;70012;0.000;0.000;2023-05-24T12:44:35;101380.50;;;13.95;50.88
80648;BME280;70012;0.000;0.000;2023-05-24T12:47:06;101391.50;;;13.95;51.79
80648;BME280;70012;0.000;0.000;2023-05-24T12:49:34;101385.38;;;13.88;51.20
80648;BME280;70012;0.000;0.000;2023-05-24T12:52:01;101399.22;;;13.93;52.12
80648;BME280;70012;0.000;0.000;2023-05-24T12:54:28;101372.34;;;13.83;52.60
80648;BME280;70012;0.000;0.000;2023-05-24T12:56:56;101376.00;;;13.89;51.57
80648;BME280;70012;0.000;0.000;2023-05-24T12:59:26;101386.84;;;13.96;50.99
80648;BME280;70012;0.000;0.000;2023-05-24T13:01:54;101381.16;;;14.02;51.56
80648;BME280;70012;0.000;0.000;2023-05-24T13:04:23;101372.50;;;14.11;51.50
80648;BME280;70012;0.000;0.000;2023-05-24T13:06:53;101385.47;;;14.32;51.21
80648;BME280;70012;0.000;0.000;2023-05-24T13:09:20;101384.53;;;14.44;49.78
80648;BME280;70012;0.000;0.000;2023-05-24T13:11:49;101373.72;;;14.59;49.96
80648;BME280;70012;0.000;0.000;2023-05-24T13:14:16;101383.25;;;14.68;49.89
80648;BME280;70012;0.000;0.000;2023-05-24T13:16:43;101382.72;;;14.71;50.24
80648;BME280;70012;0.000;0.000;2023-05-24T13:19:12;101378.91;;;14.72;49.44
80648;BME280;70012;0.000;0.000;2023-05-24T13:21:39;101386.72;;;14.81;49.77
80648;BME280;70012;0.000;0.000;2023-05-24T13:24:06;101364.66;;;14.81;49.22
80648;BME280;70012;0.000;0.000;2023-05-24T13:26:34;101377.97;;;14.89;49.39
80648;BME280;70012;0.000;0.000;2023-05-24T13:29:04;101375.09;;;15.01;48.54
80648;BME280;70012;0.000;0.000;2023-05-24T13:31:35;101368.22;;;15.03;49.32
80648;BME280;70012;0.000;0.000;2023-05-24T13:34:07;101376.81;;;15.07;47.77
80648;BME280;70012;0.000;0.000;2023-05-24T13:36:36;101367.09;;;14.99;48.09
80648;BME280;70012;0.000;0.000;2023-05-24T13:39:03;101364.59;;;14.98;48.98